Inmocean — ZCXX2 — position and weather

sailwx.info

Track history (hours):
 
Tides and Currents Weather Stations Pressure Air Temp Water Temp Dewpoint Dewpoint Depression Visibility Wind Speed Wind Dir Waves Ship Positions

Inmocean

Last reported at 2017-Aug-08 05:22 UTC. Time now 2017-Aug-16 21:49 UTC.
Position N 40°20' E 006°04'.
Warning: this ship's position is 8 days out of date.

Type: Sailing vessel. MMSI: 319120000.

Date/timePositionNaut miles runAvg speedWind from/ knotsBaromVisibWave heightAir tempDewpointWater temp
2017-Aug-08 05:22N 40°20' E 006°04'611.0
2017-Aug-08 04:51N 40°17' E 005°57'410.8
2017-Aug-08 04:28N 40°15' E 005°52'11310.7
2017-Aug-07 17:56N 39°27' E 003°39'1010.9
2017-Aug-07 17:03N 39°22' E 003°28'111.0
2017-Aug-07 17:00N 39°22' E 003°27'7 8.3
2017-Aug-07 16:12N 39°19' E 003°20'210.0
2017-Aug-07 16:00N 39°18' E 003°18'510.2
2017-Aug-07 15:30N 39°15' E 003°12'610.1
2017-Aug-07 14:57N 39°12' E 003°06'510.2
2017-Aug-07 14:30N 39°09' E 003°02'510.1
2017-Aug-07 13:59N 39°06' E 002°56'510.0
2017-Aug-07 13:30N 39°03' E 002°51'5 9.8
2017-Aug-07 12:59N 39°01' E 002°46'5 9.9
2017-Aug-07 12:28N 38°58' E 002°40'6 9.7
2017-Aug-07 11:54N 38°55' E 002°34'410.0
2017-Aug-07 11:30N 38°52' E 002°30'1510.2
2017-Aug-07 10:00N 38°44' E 002°14'510.3
2017-Aug-07 09:29N 38°41' E 002°08'5 9.9
2017-Aug-07 08:59N 38°38' E 002°03'  
2017-Aug-04 23:50N 36°29' W 004°56'0 0.0
2017-Aug-04 18:14N 36°30' W 004°56'0 0.0
2017-Aug-04 17:59N 36°30' W 004°56'0 0.0
2017-Aug-04 17:29N 36°30' W 004°56'0 0.0
2017-Aug-04 13:26N 36°30' W 004°56'0 0.0
2017-Aug-04 10:05N 36°30' W 004°56'0 3.5
2017-Aug-04 09:58N 36°29' W 004°57'0 0.7
2017-Aug-04 09:23N 36°29' W 004°57'15 0.9
2017-Aug-03 17:19N 36°17' W 005°08'310.2
2017-Aug-03 17:00N 36°14' W 005°10'510.2
2017-Aug-03 16:30N 36°10' W 005°14'5 9.5
2017-Aug-03 16:00N 36°06' W 005°18'4 7.6
2017-Aug-03 15:31N 36°08' W 005°22'1 1.4
2017-Aug-03 14:49N 36°09' W 005°22'0 0.0
2017-Aug-03 13:07N 36°09' W 005°22'0 0.0
2017-Aug-03 12:01N 36°09' W 005°22'0 0.0
2017-Aug-03 11:46N 36°09' W 005°22'0 0.0
2017-Aug-03 11:28N 36°09' W 005°22'0 0.0
2017-Aug-03 10:58N 36°09' W 005°22'2 3.7
2017-Aug-03 10:30N 36°07' W 005°22'3 5.7
2017-Aug-03 10:00N 36°07' W 005°18'5 9.8
2017-Aug-03 09:31N 36°11' W 005°15'510.4
2017-Aug-03 09:00N 36°15' W 005°11'18 5.5
2017-Aug-03 05:44N 36°29' W 004°57'0 0.0
2017-Aug-03 05:08N 36°29' W 004°57'0 0.0
2017-Aug-03 04:44N 36°29' W 004°57'0 0.0
2017-Aug-03 04:29N 36°29' W 004°57'  
2017-Jul-29 18:25N 36°24' W 004°59'0 0.4
2017-Jul-29 18:00N 36°24' W 004°59'0 0.7
2017-Jul-29 17:30N 36°24' W 004°59'5 9.3
2017-Jul-29 17:00N 36°29' W 004°57'  
Track history (hours):
 
Tides and Currents Weather Stations Pressure Air Temp Water Temp Dewpoint Dewpoint Depression Visibility Wind Speed Wind Dir Waves Ship Positions

Inmocean

Last reported at 2017-Aug-08 05:22 UTC. Time now 2017-Aug-16 21:49 UTC.
Position N 40°20' E 006°04'.
Warning: this ship's position is 8 days out of date.

Type: Sailing vessel. MMSI: 319120000.

Date/timePositionNaut miles runAvg speedWind from/ knotsBaromVisibWave heightAir tempDewpointWater temp
2017-Aug-08 05:22N 40°20' E 006°04'611.0
2017-Aug-08 04:51N 40°17' E 005°57'410.8
2017-Aug-08 04:28N 40°15' E 005°52'11310.7
2017-Aug-07 17:56N 39°27' E 003°39'1010.9
2017-Aug-07 17:03N 39°22' E 003°28'111.0
2017-Aug-07 17:00N 39°22' E 003°27'7 8.3
2017-Aug-07 16:12N 39°19' E 003°20'210.0
2017-Aug-07 16:00N 39°18' E 003°18'510.2
2017-Aug-07 15:30N 39°15' E 003°12'610.1
2017-Aug-07 14:57N 39°12' E 003°06'510.2
2017-Aug-07 14:30N 39°09' E 003°02'510.1
2017-Aug-07 13:59N 39°06' E 002°56'510.0
2017-Aug-07 13:30N 39°03' E 002°51'5 9.8
2017-Aug-07 12:59N 39°01' E 002°46'5 9.9
2017-Aug-07 12:28N 38°58' E 002°40'6 9.7
2017-Aug-07 11:54N 38°55' E 002°34'410.0
2017-Aug-07 11:30N 38°52' E 002°30'1510.2
2017-Aug-07 10:00N 38°44' E 002°14'510.3
2017-Aug-07 09:29N 38°41' E 002°08'5 9.9
2017-Aug-07 08:59N 38°38' E 002°03'  
2017-Aug-04 23:50N 36°29' W 004°56'0 0.0
2017-Aug-04 18:14N 36°30' W 004°56'0 0.0
2017-Aug-04 17:59N 36°30' W 004°56'0 0.0
2017-Aug-04 17:29N 36°30' W 004°56'0 0.0
2017-Aug-04 13:26N 36°30' W 004°56'0 0.0
2017-Aug-04 10:05N 36°30' W 004°56'0 3.5
2017-Aug-04 09:58N 36°29' W 004°57'0 0.7
2017-Aug-04 09:23N 36°29' W 004°57'15 0.9
2017-Aug-03 17:19N 36°17' W 005°08'310.2
2017-Aug-03 17:00N 36°14' W 005°10'510.2
2017-Aug-03 16:30N 36°10' W 005°14'5 9.5
2017-Aug-03 16:00N 36°06' W 005°18'4 7.6
2017-Aug-03 15:31N 36°08' W 005°22'1 1.4
2017-Aug-03 14:49N 36°09' W 005°22'0 0.0
2017-Aug-03 13:07N 36°09' W 005°22'0 0.0
2017-Aug-03 12:01N 36°09' W 005°22'0 0.0
2017-Aug-03 11:46N 36°09' W 005°22'0 0.0
2017-Aug-03 11:28N 36°09' W 005°22'0 0.0
2017-Aug-03 10:58N 36°09' W 005°22'2 3.7
2017-Aug-03 10:30N 36°07' W 005°22'3 5.7
2017-Aug-03 10:00N 36°07' W 005°18'5 9.8
2017-Aug-03 09:31N 36°11' W 005°15'510.4
2017-Aug-03 09:00N 36°15' W 005°11'18 5.5
2017-Aug-03 05:44N 36°29' W 004°57'0 0.0
2017-Aug-03 05:08N 36°29' W 004°57'0 0.0
2017-Aug-03 04:44N 36°29' W 004°57'0 0.0
2017-Aug-03 04:29N 36°29' W 004°57'  
2017-Jul-29 18:25N 36°24' W 004°59'0 0.4
2017-Jul-29 18:00N 36°24' W 004°59'0 0.7
2017-Jul-29 17:30N 36°24' W 004°59'5 9.3
2017-Jul-29 17:00N 36°29' W 004°57'  

Dump ship's entire track history